Fuding, China
Current Conditions -  °F | °C
As of 10:00 AM on Saturday 29 Nov 2014 (Local Time) from ZSFZ Reporting Station
Broken Clouds Broken Clouds  
Wind Chill: 66°   Ceiling: 900
Heat Index: 66°   Visibility: 4mi
Dew Point: 63°   Wind: 16mph
Humidity: 88%   Direction: 30°NNE
Pressure: 30.06"   Gusts: NA
Location:  27.33°N, 120.2°E
Report Text: ZSFZ 290200Z 03007MPS 7000 BKN009 19/17 Q1018 NOSIG
Loading
Personal Weather Stations






























Interactive Weather Map New forecast layout! Learn more

10-Day Weather Forecast

Advertisements
Track Severe Weather on mobile